Terminal Aerodrome Forecast
Issued by NWS

Home | Current Version | Previous Version | Text Only | Print | Product List | Glossary Off
Versions: 1 2 3 4 5 6 7 8 9 10 11 12 13 14 15 16 17 18 19

000
FTUS43 KABR 312322
TAFPIR
TAF
KPIR 312322Z 0100/0124 13017KT P6SM FEW050
     FM010300 11015KT P6SM SCT100
     FM010900 11007KT P6SM SCT010
     FM011500 15013KT P6SM SKC=

USA.gov is the U.S. government's official web portal to all federal, state and local government web resources and services.